sensor_id;sensor_type;location;lat;lon;timestamp;temperature;humidity
14172;DHT22;7165;52.388;4.928;2024-02-04T00:01:30;10.20;99.90
14172;DHT22;7165;52.388;4.928;2024-02-04T00:03:57;10.20;99.90
14172;DHT22;7165;52.388;4.928;2024-02-04T00:06:24;10.20;99.90
14172;DHT22;7165;52.388;4.928;2024-02-04T00:08:51;10.20;99.90
14172;DHT22;7165;52.388;4.928;2024-02-04T00:11:18;10.10;99.90
14172;DHT22;7165;52.388;4.928;2024-02-04T00:13:45;10.20;99.90
14172;DHT22;7165;52.388;4.928;2024-02-04T00:16:12;10.20;99.90
14172;DHT22;7165;52.388;4.928;2024-02-04T00:18:40;10.10;99.90
14172;DHT22;7165;52.388;4.928;2024-02-04T00:21:07;10.20;99.90
14172;DHT22;7165;52.388;4.928;2024-02-04T00:23:34;10.20;99.90
14172;DHT22;7165;52.388;4.928;2024-02-04T00:26:00;10.20;99.90
14172;DHT22;7165;52.388;4.928;2024-02-04T00:28:28;10.20;99.90
14172;DHT22;7165;52.388;4.928;2024-02-04T00:30:55;10.20;99.90
14172;DHT22;7165;52.388;4.928;2024-02-04T00:33:23;10.30;99.90
14172;DHT22;7165;52.388;4.928;2024-02-04T00:35:51;10.20;99.90
14172;DHT22;7165;52.388;4.928;2024-02-04T00:38:18;10.20;99.90
14172;DHT22;7165;52.388;4.928;2024-02-04T00:40:45;10.20;99.90
14172;DHT22;7165;52.388;4.928;2024-02-04T00:43:12;10.10;99.90
14172;DHT22;7165;52.388;4.928;2024-02-04T00:45:39;10.10;99.90
14172;DHT22;7165;52.388;4.928;2024-02-04T00:48:06;10.10;99.90
14172;DHT22;7165;52.388;4.928;2024-02-04T00:50:33;10.00;99.90
14172;DHT22;7165;52.388;4.928;2024-02-04T00:53:01;10.00;99.90
14172;DHT22;7165;52.388;4.928;2024-02-04T00:55:28;9.90;99.90
14172;DHT22;7165;52.388;4.928;2024-02-04T00:57:55;9.80;99.90
14172;DHT22;7165;52.388;4.928;2024-02-04T01:00:24;9.70;99.90
14172;DHT22;7165;52.388;4.928;2024-02-04T01:02:51;9.60;99.90
14172;DHT22;7165;52.388;4.928;2024-02-04T01:05:18;9.60;99.90
14172;DHT22;7165;52.388;4.928;2024-02-04T01:07:45;9.50;99.90
14172;DHT22;7165;52.388;4.928;2024-02-04T01:10:13;9.50;99.90
14172;DHT22;7165;52.388;4.928;2024-02-04T01:12:40;9.40;99.90
14172;DHT22;7165;52.388;4.928;2024-02-04T01:15:07;9.30;99.90
14172;DHT22;7165;52.388;4.928;2024-02-04T01:17:34;9.40;99.90
14172;DHT22;7165;52.388;4.928;2024-02-04T01:20:01;9.30;99.90
14172;DHT22;7165;52.388;4.928;2024-02-04T01:22:28;9.30;99.90
14172;DHT22;7165;52.388;4.928;2024-02-04T01:24:55;9.30;99.90
14172;DHT22;7165;52.388;4.928;2024-02-04T01:27:23;9.30;99.90
14172;DHT22;7165;52.388;4.928;2024-02-04T01:29:50;9.30;99.90
14172;DHT22;7165;52.388;4.928;2024-02-04T01:32:19;9.40;99.90
14172;DHT22;7165;52.388;4.928;2024-02-04T01:34:45;9.30;99.90
14172;DHT22;7165;52.388;4.928;2024-02-04T01:37:12;9.40;99.90
14172;DHT22;7165;52.388;4.928;2024-02-04T01:39:39;9.30;99.90
14172;DHT22;7165;52.388;4.928;2024-02-04T01:42:06;9.30;99.90
14172;DHT22;7165;52.388;4.928;2024-02-04T01:44:35;9.30;99.90
14172;DHT22;7165;52.388;4.928;2024-02-04T01:47:01;9.30;99.90
14172;DHT22;7165;52.388;4.928;2024-02-04T01:49:29;9.30;99.90
14172;DHT22;7165;52.388;4.928;2024-02-04T01:51:56;9.30;99.90
14172;DHT22;7165;52.388;4.928;2024-02-04T01:54:24;9.30;99.90
14172;DHT22;7165;52.388;4.928;2024-02-04T01:56:52;9.30;99.90
14172;DHT22;7165;52.388;4.928;2024-02-04T01:59:20;9.30;99.90
14172;DHT22;7165;52.388;4.928;2024-02-04T02:01:50;9.30;99.90
14172;DHT22;7165;52.388;4.928;2024-02-04T02:04:17;9.30;99.90
14172;DHT22;7165;52.388;4.928;2024-02-04T02:06:44;9.30;99.90
14172;DHT22;7165;52.388;4.928;2024-02-04T02:09:12;9.20;99.90
14172;DHT22;7165;52.388;4.928;2024-02-04T02:11:41;9.20;99.90
14172;DHT22;7165;52.388;4.928;2024-02-04T02:14:14;9.20;99.90
14172;DHT22;7165;52.388;4.928;2024-02-04T02:16:45;9.20;99.90
14172;DHT22;7165;52.388;4.928;2024-02-04T02:19:27;9.20;99.90
14172;DHT22;7165;52.388;4.928;2024-02-04T02:22:04;9.10;99.90
14172;DHT22;7165;52.388;4.928;2024-02-04T02:24:35;9.10;99.90
14172;DHT22;7165;52.388;4.928;2024-02-04T02:27:04;9.10;99.90
14172;DHT22;7165;52.388;4.928;2024-02-04T02:29:32;9.00;99.90
14172;DHT22;7165;52.388;4.928;2024-02-04T02:31:59;9.00;99.90
14172;DHT22;7165;52.388;4.928;2024-02-04T02:34:27;9.00;99.90
14172;DHT22;7165;52.388;4.928;2024-02-04T02:36:59;9.00;99.90
14172;DHT22;7165;52.388;4.928;2024-02-04T02:39:31;9.00;99.90
14172;DHT22;7165;52.388;4.928;2024-02-04T02:42:02;9.00;99.90
14172;DHT22;7165;52.388;4.928;2024-02-04T02:44:30;9.00;99.90
14172;DHT22;7165;52.388;4.928;2024-02-04T02:46:59;8.90;99.90
14172;DHT22;7165;52.388;4.928;2024-02-04T02:49:27;8.90;99.90
14172;DHT22;7165;52.388;4.928;2024-02-04T02:51:54;8.90;99.90
14172;DHT22;7165;52.388;4.928;2024-02-04T02:54:21;8.90;99.90
14172;DHT22;7165;52.388;4.928;2024-02-04T02:56:48;8.90;99.90
14172;DHT22;7165;52.388;4.928;2024-02-04T02:59:17;9.00;99.90
14172;DHT22;7165;52.388;4.928;2024-02-04T03:01:44;9.00;99.90
14172;DHT22;7165;52.388;4.928;2024-02-04T03:04:11;9.00;99.90
14172;DHT22;7165;52.388;4.928;2024-02-04T03:06:37;9.00;99.90
14172;DHT22;7165;52.388;4.928;2024-02-04T03:09:04;9.00;99.90
14172;DHT22;7165;52.388;4.928;2024-02-04T03:11:31;9.00;99.90
14172;DHT22;7165;52.388;4.928;2024-02-04T03:13:59;9.00;99.90
14172;DHT22;7165;52.388;4.928;2024-02-04T03:16:27;9.00;99.90
14172;DHT22;7165;52.388;4.928;2024-02-04T03:18:53;9.00;99.90
14172;DHT22;7165;52.388;4.928;2024-02-04T03:21:20;9.00;99.90
14172;DHT22;7165;52.388;4.928;2024-02-04T03:23:47;9.00;99.90
14172;DHT22;7165;52.388;4.928;2024-02-04T03:26:16;9.00;99.90
14172;DHT22;7165;52.388;4.928;2024-02-04T03:28:43;9.00;99.90
14172;DHT22;7165;52.388;4.928;2024-02-04T03:31:10;9.00;99.90
14172;DHT22;7165;52.388;4.928;2024-02-04T03:33:38;9.00;99.90
14172;DHT22;7165;52.388;4.928;2024-02-04T03:36:05;9.00;99.90
14172;DHT22;7165;52.388;4.928;2024-02-04T03:38:31;9.00;99.90
14172;DHT22;7165;52.388;4.928;2024-02-04T03:40:58;9.00;99.90
14172;DHT22;7165;52.388;4.928;2024-02-04T03:43:25;9.00;99.90
14172;DHT22;7165;52.388;4.928;2024-02-04T03:45:51;9.00;99.90
14172;DHT22;7165;52.388;4.928;2024-02-04T03:48:18;9.00;99.90
14172;DHT22;7165;52.388;4.928;2024-02-04T03:50:46;9.10;99.90
14172;DHT22;7165;52.388;4.928;2024-02-04T03:53:13;9.10;99.90
14172;DHT22;7165;52.388;4.928;2024-02-04T03:55:39;9.10;99.90
14172;DHT22;7165;52.388;4.928;2024-02-04T03:58:07;9.10;99.90
14172;DHT22;7165;52.388;4.928;2024-02-04T04:00:34;9.10;99.90
14172;DHT22;7165;52.388;4.928;2024-02-04T04:03:01;9.00;99.90
14172;DHT22;7165;52.388;4.928;2024-02-04T04:05:28;9.00;99.90
14172;DHT22;7165;52.388;4.928;2024-02-04T04:07:56;9.00;99.90
14172;DHT22;7165;52.388;4.928;2024-02-04T04:10:23;9.00;99.90
14172;DHT22;7165;52.388;4.928;2024-02-04T04:12:50;9.00;99.90
14172;DHT22;7165;52.388;4.928;2024-02-04T04:15:17;9.00;99.90
14172;DHT22;7165;52.388;4.928;2024-02-04T04:17:44;9.00;99.90
14172;DHT22;7165;52.388;4.928;2024-02-04T04:20:11;9.10;99.90
14172;DHT22;7165;52.388;4.928;2024-02-04T04:22:39;9.10;99.90
14172;DHT22;7165;52.388;4.928;2024-02-04T04:25:08;9.10;99.90
14172;DHT22;7165;52.388;4.928;2024-02-04T04:27:35;9.10;99.90
14172;DHT22;7165;52.388;4.928;2024-02-04T04:30:03;9.10;99.90
14172;DHT22;7165;52.388;4.928;2024-02-04T04:32:30;9.10;99.90
14172;DHT22;7165;52.388;4.928;2024-02-04T04:34:57;9.10;99.90
14172;DHT22;7165;52.388;4.928;2024-02-04T04:37:24;9.10;99.90
14172;DHT22;7165;52.388;4.928;2024-02-04T04:39:51;9.10;99.90
14172;DHT22;7165;52.388;4.928;2024-02-04T04:42:19;9.10;99.90
14172;DHT22;7165;52.388;4.928;2024-02-04T04:44:46;9.10;99.90
14172;DHT22;7165;52.388;4.928;2024-02-04T04:47:15;9.00;99.90
14172;DHT22;7165;52.388;4.928;2024-02-04T04:49:41;9.00;99.90
14172;DHT22;7165;52.388;4.928;2024-02-04T04:52:08;9.10;99.90
14172;DHT22;7165;52.388;4.928;2024-02-04T04:54:35;9.10;99.90
14172;DHT22;7165;52.388;4.928;2024-02-04T04:57:02;9.10;99.90
14172;DHT22;7165;52.388;4.928;2024-02-04T04:59:30;9.10;99.90
14172;DHT22;7165;52.388;4.928;2024-02-04T05:01:57;9.10;99.90
14172;DHT22;7165;52.388;4.928;2024-02-04T05:04:24;9.10;99.90
14172;DHT22;7165;52.388;4.928;2024-02-04T05:06:51;9.10;99.90
14172;DHT22;7165;52.388;4.928;2024-02-04T05:09:18;9.10;99.90
14172;DHT22;7165;52.388;4.928;2024-02-04T05:11:45;9.10;99.90
14172;DHT22;7165;52.388;4.928;2024-02-04T05:14:12;9.10;99.90
14172;DHT22;7165;52.388;4.928;2024-02-04T05:16:40;9.10;99.90
14172;DHT22;7165;52.388;4.928;2024-02-04T05:19:09;9.10;99.90
14172;DHT22;7165;52.388;4.928;2024-02-04T05:21:38;9.10;99.90
14172;DHT22;7165;52.388;4.928;2024-02-04T05:24:06;9.10;99.90
14172;DHT22;7165;52.388;4.928;2024-02-04T05:26:33;9.00;99.90
14172;DHT22;7165;52.388;4.928;2024-02-04T05:28:59;9.00;99.90
14172;DHT22;7165;52.388;4.928;2024-02-04T05:31:26;9.00;99.90
14172;DHT22;7165;52.388;4.928;2024-02-04T05:33:56;9.00;99.90
14172;DHT22;7165;52.388;4.928;2024-02-04T05:36:23;9.00;99.90
14172;DHT22;7165;52.388;4.928;2024-02-04T05:38:49;9.00;99.90
14172;DHT22;7165;52.388;4.928;2024-02-04T05:41:16;9.10;99.90
14172;DHT22;7165;52.388;4.928;2024-02-04T05:43:43;9.10;99.90
14172;DHT22;7165;52.388;4.928;2024-02-04T05:46:11;9.10;99.90
14172;DHT22;7165;52.388;4.928;2024-02-04T05:48:39;9.10;99.90
14172;DHT22;7165;52.388;4.928;2024-02-04T05:51:11;9.20;99.90
14172;DHT22;7165;52.388;4.928;2024-02-04T05:53:38;9.10;99.90
14172;DHT22;7165;52.388;4.928;2024-02-04T05:56:05;9.10;99.90
14172;DHT22;7165;52.388;4.928;2024-02-04T05:58:32;9.10;99.90
14172;DHT22;7165;52.388;4.928;2024-02-04T06:00:59;9.10;99.90
14172;DHT22;7165;52.388;4.928;2024-02-04T06:03:25;9.10;99.90
14172;DHT22;7165;52.388;4.928;2024-02-04T06:05:52;9.10;99.90
14172;DHT22;7165;52.388;4.928;2024-02-04T06:08:20;9.10;99.90
14172;DHT22;7165;52.388;4.928;2024-02-04T06:10:47;9.10;99.90
14172;DHT22;7165;52.388;4.928;2024-02-04T06:13:14;9.10;99.90
14172;DHT22;7165;52.388;4.928;2024-02-04T06:15:41;9.10;99.90
14172;DHT22;7165;52.388;4.928;2024-02-04T06:18:08;9.10;99.90
14172;DHT22;7165;52.388;4.928;2024-02-04T06:20:35;9.20;99.90
14172;DHT22;7165;52.388;4.928;2024-02-04T06:23:02;9.10;99.90
14172;DHT22;7165;52.388;4.928;2024-02-04T06:25:30;9.10;99.90
14172;DHT22;7165;52.388;4.928;2024-02-04T06:27:57;9.10;99.90
14172;DHT22;7165;52.388;4.928;2024-02-04T06:30:24;9.10;99.90
14172;DHT22;7165;52.388;4.928;2024-02-04T06:32:51;9.10;99.90
14172;DHT22;7165;52.388;4.928;2024-02-04T06:35:18;9.10;99.90
14172;DHT22;7165;52.388;4.928;2024-02-04T06:37:45;9.10;99.90
14172;DHT22;7165;52.388;4.928;2024-02-04T06:40:12;9.20;99.90
14172;DHT22;7165;52.388;4.928;2024-02-04T06:42:40;9.20;99.90
14172;DHT22;7165;52.388;4.928;2024-02-04T06:45:07;9.20;99.90
14172;DHT22;7165;52.388;4.928;2024-02-04T06:47:34;9.30;99.90
14172;DHT22;7165;52.388;4.928;2024-02-04T06:50:02;9.30;99.90
14172;DHT22;7165;52.388;4.928;2024-02-04T06:52:31;9.40;99.90
14172;DHT22;7165;52.388;4.928;2024-02-04T06:54:57;9.40;99.90
14172;DHT22;7165;52.388;4.928;2024-02-04T06:57:24;9.50;99.90
14172;DHT22;7165;52.388;4.928;2024-02-04T06:59:52;9.40;99.90
14172;DHT22;7165;52.388;4.928;2024-02-04T07:02:19;9.50;99.90
14172;DHT22;7165;52.388;4.928;2024-02-04T07:04:46;9.50;99.90
14172;DHT22;7165;52.388;4.928;2024-02-04T07:07:13;9.60;99.90
14172;DHT22;7165;52.388;4.928;2024-02-04T07:09:40;9.60;99.90
14172;DHT22;7165;52.388;4.928;2024-02-04T07:12:07;9.60;99.90
14172;DHT22;7165;52.388;4.928;2024-02-04T07:14:34;9.60;99.90
14172;DHT22;7165;52.388;4.928;2024-02-04T07:17:02;9.60;99.90
14172;DHT22;7165;52.388;4.928;2024-02-04T07:19:29;9.60;99.90
14172;DHT22;7165;52.388;4.928;2024-02-04T07:21:56;9.70;99.90
14172;DHT22;7165;52.388;4.928;2024-02-04T07:24:23;9.70;99.90
14172;DHT22;7165;52.388;4.928;2024-02-04T07:26:50;9.70;99.90
14172;DHT22;7165;52.388;4.928;2024-02-04T07:29:16;9.80;99.90
14172;DHT22;7165;52.388;4.928;2024-02-04T07:31:43;9.80;99.90
14172;DHT22;7165;52.388;4.928;2024-02-04T07:34:11;9.80;99.90
14172;DHT22;7165;52.388;4.928;2024-02-04T07:36:38;9.90;99.90
14172;DHT22;7165;52.388;4.928;2024-02-04T07:39:05;9.80;99.90
14172;DHT22;7165;52.388;4.928;2024-02-04T07:41:33;9.80;99.90
14172;DHT22;7165;52.388;4.928;2024-02-04T07:43:59;9.80;99.90
14172;DHT22;7165;52.388;4.928;2024-02-04T07:46:26;9.90;99.90
14172;DHT22;7165;52.388;4.928;2024-02-04T07:48:53;9.90;99.90
14172;DHT22;7165;52.388;4.928;2024-02-04T07:51:21;9.90;99.90
14172;DHT22;7165;52.388;4.928;2024-02-04T07:53:48;9.90;99.90
14172;DHT22;7165;52.388;4.928;2024-02-04T07:56:15;9.90;99.90
14172;DHT22;7165;52.388;4.928;2024-02-04T07:58:42;10.00;99.90
14172;DHT22;7165;52.388;4.928;2024-02-04T08:01:09;9.90;99.90
14172;DHT22;7165;52.388;4.928;2024-02-04T08:03:35;10.00;99.90
14172;DHT22;7165;52.388;4.928;2024-02-04T08:06:03;10.00;99.90
14172;DHT22;7165;52.388;4.928;2024-02-04T08:08:31;10.00;99.90
14172;DHT22;7165;52.388;4.928;2024-02-04T08:10:58;10.00;99.90
14172;DHT22;7165;52.388;4.928;2024-02-04T08:13:25;10.00;99.90
14172;DHT22;7165;52.388;4.928;2024-02-04T08:15:52;10.00;99.90
14172;DHT22;7165;52.388;4.928;2024-02-04T08:18:19;10.00;99.90
14172;DHT22;7165;52.388;4.928;2024-02-04T08:20:46;10.00;99.90
14172;DHT22;7165;52.388;4.928;2024-02-04T08:23:13;10.00;99.90
14172;DHT22;7165;52.388;4.928;2024-02-04T08:25:41;10.10;99.90
14172;DHT22;7165;52.388;4.928;2024-02-04T08:28:08;10.10;99.90
14172;DHT22;7165;52.388;4.928;2024-02-04T08:30:35;10.10;99.90
14172;DHT22;7165;52.388;4.928;2024-02-04T08:33:01;10.10;99.90
14172;DHT22;7165;52.388;4.928;2024-02-04T08:35:28;10.10;99.90
14172;DHT22;7165;52.388;4.928;2024-02-04T08:37:55;10.10;99.90
14172;DHT22;7165;52.388;4.928;2024-02-04T08:40:22;10.10;99.90
14172;DHT22;7165;52.388;4.928;2024-02-04T08:42:50;10.20;99.90
14172;DHT22;7165;52.388;4.928;2024-02-04T08:45:17;10.20;99.90
14172;DHT22;7165;52.388;4.928;2024-02-04T08:47:44;10.30;99.90
14172;DHT22;7165;52.388;4.928;2024-02-04T08:50:11;10.30;99.90
14172;DHT22;7165;52.388;4.928;2024-02-04T08:52:38;10.40;99.90
14172;DHT22;7165;52.388;4.928;2024-02-04T08:55:06;10.40;99.90
14172;DHT22;7165;52.388;4.928;2024-02-04T08:57:32;10.40;99.90
14172;DHT22;7165;52.388;4.928;2024-02-04T09:00:01;10.40;99.90
14172;DHT22;7165;52.388;4.928;2024-02-04T09:02:28;10.40;99.90
14172;DHT22;7165;52.388;4.928;2024-02-04T09:04:55;10.40;99.90
14172;DHT22;7165;52.388;4.928;2024-02-04T09:07:21;10.50;99.90
14172;DHT22;7165;52.388;4.928;2024-02-04T09:09:48;10.50;99.90
14172;DHT22;7165;52.388;4.928;2024-02-04T09:12:15;10.50;99.90
14172;DHT22;7165;52.388;4.928;2024-02-04T09:14:42;10.50;99.90
14172;DHT22;7165;52.388;4.928;2024-02-04T09:17:10;10.60;99.90
14172;DHT22;7165;52.388;4.928;2024-02-04T09:19:39;10.60;99.90
14172;DHT22;7165;52.388;4.928;2024-02-04T09:22:06;10.60;99.90
14172;DHT22;7165;52.388;4.928;2024-02-04T09:24:33;10.60;99.90
14172;DHT22;7165;52.388;4.928;2024-02-04T09:27:00;10.60;99.90
14172;DHT22;7165;52.388;4.928;2024-02-04T09:29:27;10.60;99.90
14172;DHT22;7165;52.388;4.928;2024-02-04T09:31:54;10.70;99.90
14172;DHT22;7165;52.388;4.928;2024-02-04T09:34:22;10.70;99.90
14172;DHT22;7165;52.388;4.928;2024-02-04T09:36:49;10.70;99.90
14172;DHT22;7165;52.388;4.928;2024-02-04T09:39:18;10.70;99.90
14172;DHT22;7165;52.388;4.928;2024-02-04T09:41:51;10.80;99.90
14172;DHT22;7165;52.388;4.928;2024-02-04T09:44:18;10.80;99.90
14172;DHT22;7165;52.388;4.928;2024-02-04T09:46:45;10.80;99.90
14172;DHT22;7165;52.388;4.928;2024-02-04T09:49:13;10.80;99.90
14172;DHT22;7165;52.388;4.928;2024-02-04T09:51:41;10.80;99.90
14172;DHT22;7165;52.388;4.928;2024-02-04T09:54:10;10.80;99.90
14172;DHT22;7165;52.388;4.928;2024-02-04T09:56:38;10.90;99.90
14172;DHT22;7165;52.388;4.928;2024-02-04T09:59:05;10.90;99.90
14172;DHT22;7165;52.388;4.928;2024-02-04T10:01:32;10.90;99.90
14172;DHT22;7165;52.388;4.928;2024-02-04T10:03:59;10.90;99.90
14172;DHT22;7165;52.388;4.928;2024-02-04T10:06:26;10.90;99.90
14172;DHT22;7165;52.388;4.928;2024-02-04T10:08:54;10.90;99.90
14172;DHT22;7165;52.388;4.928;2024-02-04T10:11:22;10.90;99.90
14172;DHT22;7165;52.388;4.928;2024-02-04T10:13:49;11.00;99.90
14172;DHT22;7165;52.388;4.928;2024-02-04T10:16:17;11.00;99.90
14172;DHT22;7165;52.388;4.928;2024-02-04T10:18:44;11.00;99.90
14172;DHT22;7165;52.388;4.928;2024-02-04T10:21:15;11.00;99.90
14172;DHT22;7165;52.388;4.928;2024-02-04T10:23:43;11.00;99.90
14172;DHT22;7165;52.388;4.928;2024-02-04T10:26:11;11.00;99.90
14172;DHT22;7165;52.388;4.928;2024-02-04T10:28:38;11.10;99.90
14172;DHT22;7165;52.388;4.928;2024-02-04T10:31:08;11.10;99.90
14172;DHT22;7165;52.388;4.928;2024-02-04T10:33:35;11.10;99.90
14172;DHT22;7165;52.388;4.928;2024-02-04T10:36:02;11.10;99.90
14172;DHT22;7165;52.388;4.928;2024-02-04T10:38:29;11.10;99.90
14172;DHT22;7165;52.388;4.928;2024-02-04T10:40:55;11.10;99.90
14172;DHT22;7165;52.388;4.928;2024-02-04T10:43:27;11.10;99.90
14172;DHT22;7165;52.388;4.928;2024-02-04T10:45:57;11.10;99.90
14172;DHT22;7165;52.388;4.928;2024-02-04T10:48:27;11.10;99.90
14172;DHT22;7165;52.388;4.928;2024-02-04T10:50:55;11.10;99.90
14172;DHT22;7165;52.388;4.928;2024-02-04T10:53:25;11.20;99.90
14172;DHT22;7165;52.388;4.928;2024-02-04T10:55:51;11.20;99.90
14172;DHT22;7165;52.388;4.928;2024-02-04T10:58:21;11.20;99.90
14172;DHT22;7165;52.388;4.928;2024-02-04T11:00:50;11.10;99.90
14172;DHT22;7165;52.388;4.928;2024-02-04T11:03:17;11.20;99.90
14172;DHT22;7165;52.388;4.928;2024-02-04T11:05:43;11.20;99.90
14172;DHT22;7165;52.388;4.928;2024-02-04T11:08:10;11.20;99.90
14172;DHT22;7165;52.388;4.928;2024-02-04T11:10:38;11.20;99.90
14172;DHT22;7165;52.388;4.928;2024-02-04T11:13:05;11.20;99.90
14172;DHT22;7165;52.388;4.928;2024-02-04T11:15:35;11.10;99.90
14172;DHT22;7165;52.388;4.928;2024-02-04T11:18:21;11.10;99.90
14172;DHT22;7165;52.388;4.928;2024-02-04T11:20:58;11.20;99.90
14172;DHT22;7165;52.388;4.928;2024-02-04T11:23:36;11.30;99.90
14172;DHT22;7165;52.388;4.928;2024-02-04T11:26:05;11.40;99.90
14172;DHT22;7165;52.388;4.928;2024-02-04T11:28:32;11.40;99.90
14172;DHT22;7165;52.388;4.928;2024-02-04T11:30:59;11.50;99.90
14172;DHT22;7165;52.388;4.928;2024-02-04T11:33:28;11.50;99.90
14172;DHT22;7165;52.388;4.928;2024-02-04T11:36:03;11.40;99.90
14172;DHT22;7165;52.388;4.928;2024-02-04T11:38:35;11.40;99.90
14172;DHT22;7165;52.388;4.928;2024-02-04T11:41:03;11.50;99.90
14172;DHT22;7165;52.388;4.928;2024-02-04T11:43:32;11.40;99.90
14172;DHT22;7165;52.388;4.928;2024-02-04T11:46:00;11.50;99.90
14172;DHT22;7165;52.388;4.928;2024-02-04T11:48:32;11.40;99.90
14172;DHT22;7165;52.388;4.928;2024-02-04T11:50:59;11.40;99.90
14172;DHT22;7165;52.388;4.928;2024-02-04T11:53:26;11.40;99.90
14172;DHT22;7165;52.388;4.928;2024-02-04T11:55:57;11.50;99.90
14172;DHT22;7165;52.388;4.928;2024-02-04T11:58:24;11.50;99.90
14172;DHT22;7165;52.388;4.928;2024-02-04T12:00:51;11.40;99.90
14172;DHT22;7165;52.388;4.928;2024-02-04T12:03:27;11.40;99.90
14172;DHT22;7165;52.388;4.928;2024-02-04T12:05:56;11.30;99.90
14172;DHT22;7165;52.388;4.928;2024-02-04T12:08:23;11.30;99.90
14172;DHT22;7165;52.388;4.928;2024-02-04T12:10:50;11.20;99.90
14172;DHT22;7165;52.388;4.928;2024-02-04T12:13:17;11.20;99.90
14172;DHT22;7165;52.388;4.928;2024-02-04T12:15:45;11.20;99.90
14172;DHT22;7165;52.388;4.928;2024-02-04T12:18:12;11.10;99.90
14172;DHT22;7165;52.388;4.928;2024-02-04T12:20:39;11.10;99.90
14172;DHT22;7165;52.388;4.928;2024-02-04T12:23:07;11.20;99.90
14172;DHT22;7165;52.388;4.928;2024-02-04T12:25:34;11.20;99.90
14172;DHT22;7165;52.388;4.928;2024-02-04T12:28:02;11.10;99.90
14172;DHT22;7165;52.388;4.928;2024-02-04T12:30:29;11.10;99.90
14172;DHT22;7165;52.388;4.928;2024-02-04T12:32:56;11.10;99.90
14172;DHT22;7165;52.388;4.928;2024-02-04T12:35:24;11.00;99.90
14172;DHT22;7165;52.388;4.928;2024-02-04T12:37:51;11.00;99.90
14172;DHT22;7165;52.388;4.928;2024-02-04T12:40:21;10.90;99.90
14172;DHT22;7165;52.388;4.928;2024-02-04T12:42:52;10.90;99.90
14172;DHT22;7165;52.388;4.928;2024-02-04T12:45:19;10.90;99.90
14172;DHT22;7165;52.388;4.928;2024-02-04T12:47:48;10.90;99.90
14172;DHT22;7165;52.388;4.928;2024-02-04T12:50:15;10.80;99.90
14172;DHT22;7165;52.388;4.928;2024-02-04T12:52:41;10.80;99.90
14172;DHT22;7165;52.388;4.928;2024-02-04T12:55:08;10.80;99.90
14172;DHT22;7165;52.388;4.928;2024-02-04T12:57:46;10.80;99.90
14172;DHT22;7165;52.388;4.928;2024-02-04T13:00:13;10.70;99.90
14172;DHT22;7165;52.388;4.928;2024-02-04T13:02:43;10.80;99.90
14172;DHT22;7165;52.388;4.928;2024-02-04T13:05:10;10.70;99.90
14172;DHT22;7165;52.388;4.928;2024-02-04T13:07:50;10.70;99.90
14172;DHT22;7165;52.388;4.928;2024-02-04T13:10:17;10.70;99.90
14172;DHT22;7165;52.388;4.928;2024-02-04T13:12:43;10.70;99.90
14172;DHT22;7165;52.388;4.928;2024-02-04T13:15:12;10.80;99.90
14172;DHT22;7165;52.388;4.928;2024-02-04T13:17:38;10.80;99.90
14172;DHT22;7165;52.388;4.928;2024-02-04T13:20:05;10.80;99.90
14172;DHT22;7165;52.388;4.928;2024-02-04T13:22:34;10.80;99.90
14172;DHT22;7165;52.388;4.928;2024-02-04T13:25:01;10.80;99.90
14172;DHT22;7165;52.388;4.928;2024-02-04T13:27:27;10.90;99.90
14172;DHT22;7165;52.388;4.928;2024-02-04T13:29:54;10.90;99.90
14172;DHT22;7165;52.388;4.928;2024-02-04T13:32:22;10.90;99.90
14172;DHT22;7165;52.388;4.928;2024-02-04T13:34:49;10.90;99.90
14172;DHT22;7165;52.388;4.928;2024-02-04T13:37:16;10.90;99.90
14172;DHT22;7165;52.388;4.928;2024-02-04T13:39:43;10.90;99.90
14172;DHT22;7165;52.388;4.928;2024-02-04T13:42:10;10.90;99.90
14172;DHT22;7165;52.388;4.928;2024-02-04T13:44:36;11.00;99.90
14172;DHT22;7165;52.388;4.928;2024-02-04T13:47:03;11.00;99.90
14172;DHT22;7165;52.388;4.928;2024-02-04T13:49:32;11.00;99.90
14172;DHT22;7165;52.388;4.928;2024-02-04T13:51:59;11.00;99.90
14172;DHT22;7165;52.388;4.928;2024-02-04T13:54:25;11.00;99.90
14172;DHT22;7165;52.388;4.928;2024-02-04T13:56:52;11.00;99.90
14172;DHT22;7165;52.388;4.928;2024-02-04T13:59:19;11.00;99.90
14172;DHT22;7165;52.388;4.928;2024-02-04T14:01:45;11.00;99.90
14172;DHT22;7165;52.388;4.928;2024-02-04T14:04:12;11.00;99.90
14172;DHT22;7165;52.388;4.928;2024-02-04T14:06:40;11.00;99.90
14172;DHT22;7165;52.388;4.928;2024-02-04T14:09:07;11.00;99.90
14172;DHT22;7165;52.388;4.928;2024-02-04T14:11:35;11.00;99.90
14172;DHT22;7165;52.388;4.928;2024-02-04T14:14:01;11.00;99.90
14172;DHT22;7165;52.388;4.928;2024-02-04T14:16:28;11.10;99.90
14172;DHT22;7165;52.388;4.928;2024-02-04T14:18:55;11.00;99.90
14172;DHT22;7165;52.388;4.928;2024-02-04T14:21:21;11.00;99.90
14172;DHT22;7165;52.388;4.928;2024-02-04T14:23:50;11.10;99.90
14172;DHT22;7165;52.388;4.928;2024-02-04T14:26:16;11.10;99.90
14172;DHT22;7165;52.388;4.928;2024-02-04T14:28:43;11.10;99.90
14172;DHT22;7165;52.388;4.928;2024-02-04T14:31:10;11.10;99.90
14172;DHT22;7165;52.388;4.928;2024-02-04T14:33:37;11.10;99.90
14172;DHT22;7165;52.388;4.928;2024-02-04T14:36:05;11.10;99.90
14172;DHT22;7165;52.388;4.928;2024-02-04T14:38:32;11.10;99.90
14172;DHT22;7165;52.388;4.928;2024-02-04T14:41:01;11.10;99.90
14172;DHT22;7165;52.388;4.928;2024-02-04T14:43:28;11.10;99.90
14172;DHT22;7165;52.388;4.928;2024-02-04T14:45:55;11.10;99.90
14172;DHT22;7165;52.388;4.928;2024-02-04T14:48:22;11.10;99.90
14172;DHT22;7165;52.388;4.928;2024-02-04T14:50:49;11.10;99.90
14172;DHT22;7165;52.388;4.928;2024-02-04T14:53:15;11.20;99.90
14172;DHT22;7165;52.388;4.928;2024-02-04T14:55:42;11.20;99.90
14172;DHT22;7165;52.388;4.928;2024-02-04T14:58:11;11.20;99.90
14172;DHT22;7165;52.388;4.928;2024-02-04T15:00:39;11.20;99.90
14172;DHT22;7165;52.388;4.928;2024-02-04T15:03:06;11.20;99.90
14172;DHT22;7165;52.388;4.928;2024-02-04T15:05:33;11.20;99.90
14172;DHT22;7165;52.388;4.928;2024-02-04T15:07:59;11.20;99.90
14172;DHT22;7165;52.388;4.928;2024-02-04T15:10:26;11.30;99.90
14172;DHT22;7165;52.388;4.928;2024-02-04T15:12:53;11.30;99.90
14172;DHT22;7165;52.388;4.928;2024-02-04T15:15:22;11.30;99.90
14172;DHT22;7165;52.388;4.928;2024-02-04T15:17:49;11.20;99.90
14172;DHT22;7165;52.388;4.928;2024-02-04T15:20:16;11.30;99.90
14172;DHT22;7165;52.388;4.928;2024-02-04T15:22:44;11.30;99.90
14172;DHT22;7165;52.388;4.928;2024-02-04T15:25:11;11.30;99.90
14172;DHT22;7165;52.388;4.928;2024-02-04T15:27:40;11.30;99.90
14172;DHT22;7165;52.388;4.928;2024-02-04T15:30:08;11.20;99.90
14172;DHT22;7165;52.388;4.928;2024-02-04T15:32:36;11.20;99.90
14172;DHT22;7165;52.388;4.928;2024-02-04T15:35:03;11.20;99.90
14172;DHT22;7165;52.388;4.928;2024-02-04T15:37:30;11.30;99.90
14172;DHT22;7165;52.388;4.928;2024-02-04T15:39:57;11.30;99.90
14172;DHT22;7165;52.388;4.928;2024-02-04T15:42:24;11.30;99.90
14172;DHT22;7165;52.388;4.928;2024-02-04T15:44:50;11.20;99.90
14172;DHT22;7165;52.388;4.928;2024-02-04T15:47:17;11.30;99.90
14172;DHT22;7165;52.388;4.928;2024-02-04T15:49:46;11.20;99.90
14172;DHT22;7165;52.388;4.928;2024-02-04T15:52:13;11.20;99.90
14172;DHT22;7165;52.388;4.928;2024-02-04T15:54:40;11.20;99.90